sensor_id;sensor_type;location;lat;lon;timestamp;pressure;altitude;pressure_sealevel;temperature;humidity
42125;BME280;27787;44.594;11.046;2023-02-19T00:01:19;101992.94;;;8.01;85.90
42125;BME280;27787;44.594;11.046;2023-02-19T00:04:07;101995.19;;;7.90;86.50
42125;BME280;27787;44.594;11.046;2023-02-19T00:06:52;101990.59;;;7.84;87.23
42125;BME280;27787;44.594;11.046;2023-02-19T00:09:36;101978.44;;;7.88;88.08
42125;BME280;27787;44.594;11.046;2023-02-19T00:12:20;101972.59;;;7.95;87.39
42125;BME280;27787;44.594;11.046;2023-02-19T00:15:04;101974.34;;;7.94;86.46
42125;BME280;27787;44.594;11.046;2023-02-19T00:17:49;101976.97;;;7.94;86.34
42125;BME280;27787;44.594;11.046;2023-02-19T00:20:33;101970.97;;;7.98;86.55
42125;BME280;27787;44.594;11.046;2023-02-19T00:23:17;101970.13;;;7.99;86.06
42125;BME280;27787;44.594;11.046;2023-02-19T00:26:07;101968.50;;;8.03;86.40
42125;BME280;27787;44.594;11.046;2023-02-19T00:28:52;101968.22;;;8.19;86.41
42125;BME280;27787;44.594;11.046;2023-02-19T00:31:37;101967.28;;;8.41;86.53
42125;BME280;27787;44.594;11.046;2023-02-19T00:34:21;101969.00;;;8.65;85.77
42125;BME280;27787;44.594;11.046;2023-02-19T00:37:05;101965.28;;;8.85;84.45
42125;BME280;27787;44.594;11.046;2023-02-19T00:39:49;101961.28;;;8.96;83.28
42125;BME280;27787;44.594;11.046;2023-02-19T00:42:33;101963.38;;;9.06;82.55
42125;BME280;27787;44.594;11.046;2023-02-19T00:45:18;101964.94;;;9.00;81.48
42125;BME280;27787;44.594;11.046;2023-02-19T00:48:01;101966.97;;;8.83;81.68
42125;BME280;27787;44.594;11.046;2023-02-19T00:50:46;101957.00;;;8.73;81.79
42125;BME280;27787;44.594;11.046;2023-02-19T00:53:30;101962.41;;;8.52;81.15
42125;BME280;27787;44.594;11.046;2023-02-19T00:56:14;101968.38;;;8.46;83.13
42125;BME280;27787;44.594;11.046;2023-02-19T00:58:58;101968.00;;;8.36;82.56
42125;BME280;27787;44.594;11.046;2023-02-19T01:01:42;101969.94;;;8.19;82.54
42125;BME280;27787;44.594;11.046;2023-02-19T01:04:29;101960.06;;;8.12;82.85
42125;BME280;27787;44.594;11.046;2023-02-19T01:07:13;101965.47;;;7.92;82.89
42125;BME280;27787;44.594;11.046;2023-02-19T01:09:58;101976.34;;;7.79;83.60
42125;BME280;27787;44.594;11.046;2023-02-19T01:12:43;101963.94;;;7.53;84.66
42125;BME280;27787;44.594;11.046;2023-02-19T01:15:27;101970.34;;;7.37;85.53
42125;BME280;27787;44.594;11.046;2023-02-19T01:18:11;101968.84;;;7.21;87.02
42125;BME280;27787;44.594;11.046;2023-02-19T01:20:55;101978.84;;;7.09;88.76
42125;BME280;27787;44.594;11.046;2023-02-19T01:23:38;101981.19;;;7.03;88.77
42125;BME280;27787;44.594;11.046;2023-02-19T01:26:25;101972.19;;;6.96;89.50
42125;BME280;27787;44.594;11.046;2023-02-19T01:29:10;101961.44;;;6.90;90.76
42125;BME280;27787;44.594;11.046;2023-02-19T01:31:55;101966.88;;;6.95;93.03
42125;BME280;27787;44.594;11.046;2023-02-19T01:34:39;101957.50;;;7.01;93.58
42125;BME280;27787;44.594;11.046;2023-02-19T01:37:24;101958.84;;;7.13;91.72
42125;BME280;27787;44.594;11.046;2023-02-19T01:40:08;101952.13;;;7.19;88.58
42125;BME280;27787;44.594;11.046;2023-02-19T01:42:52;101952.19;;;7.21;87.63
42125;BME280;27787;44.594;11.046;2023-02-19T01:45:38;101948.72;;;7.22;87.26
42125;BME280;27787;44.594;11.046;2023-02-19T01:48:33;101950.28;;;7.17;87.28
42125;BME280;27787;44.594;11.046;2023-02-19T01:51:20;101947.28;;;7.07;86.39
42125;BME280;27787;44.594;11.046;2023-02-19T01:54:06;101954.66;;;6.95;87.80
42125;BME280;27787;44.594;11.046;2023-02-19T01:56:53;101945.69;;;6.90;91.52
42125;BME280;27787;44.594;11.046;2023-02-19T01:59:38;101945.75;;;6.92;93.08
42125;BME280;27787;44.594;11.046;2023-02-19T02:02:23;101956.38;;;6.95;90.06
42125;BME280;27787;44.594;11.046;2023-02-19T02:05:20;101945.63;;;6.89;88.41
42125;BME280;27787;44.594;11.046;2023-02-19T02:08:06;101953.47;;;6.89;87.43
42125;BME280;27787;44.594;11.046;2023-02-19T02:11:09;101943.13;;;6.92;86.50
42125;BME280;27787;44.594;11.046;2023-02-19T02:13:53;101948.50;;;6.95;87.46
42125;BME280;27787;44.594;11.046;2023-02-19T02:26:29;101926.63;;;6.94;87.03
42125;BME280;27787;44.594;11.046;2023-02-19T02:29:23;101933.13;;;7.04;88.00
42125;BME280;27787;44.594;11.046;2023-02-19T02:32:20;101920.13;;;7.07;87.67
42125;BME280;27787;44.594;11.046;2023-02-19T02:35:12;101922.09;;;7.13;87.68
42125;BME280;27787;44.594;11.046;2023-02-19T02:38:06;101925.44;;;7.08;87.17
42125;BME280;27787;44.594;11.046;2023-02-19T02:40:52;101913.16;;;6.87;85.08
42125;BME280;27787;44.594;11.046;2023-02-19T02:43:37;101920.88;;;6.82;86.69
42125;BME280;27787;44.594;11.046;2023-02-19T02:46:31;101913.16;;;6.87;87.25
42125;BME280;27787;44.594;11.046;2023-02-19T02:49:20;101908.19;;;6.93;87.27
42125;BME280;27787;44.594;11.046;2023-02-19T02:52:05;101908.25;;;6.94;87.45
42125;BME280;27787;44.594;11.046;2023-02-19T02:55:10;101910.09;;;6.97;87.57
42125;BME280;27787;44.594;11.046;2023-02-19T02:57:54;101895.34;;;7.00;87.29
42125;BME280;27787;44.594;11.046;2023-02-19T03:00:42;101902.59;;;7.06;86.81
42125;BME280;27787;44.594;11.046;2023-02-19T03:03:50;101897.41;;;7.07;86.58
42125;BME280;27787;44.594;11.046;2023-02-19T03:06:38;101892.94;;;7.05;85.70
42125;BME280;27787;44.594;11.046;2023-02-19T03:09:32;101897.41;;;6.87;85.97
42125;BME280;27787;44.594;11.046;2023-02-19T03:12:17;101896.59;;;6.88;86.60
42125;BME280;27787;44.594;11.046;2023-02-19T03:15:25;101896.34;;;6.82;85.71
42125;BME280;27787;44.594;11.046;2023-02-19T03:18:30;101889.66;;;6.90;86.85
42125;BME280;27787;44.594;11.046;2023-02-19T03:21:38;101886.56;;;7.00;86.58
42125;BME280;27787;44.594;11.046;2023-02-19T03:24:28;101889.81;;;6.93;86.06
42125;BME280;27787;44.594;11.046;2023-02-19T03:27:33;101886.41;;;6.74;86.03
42125;BME280;27787;44.594;11.046;2023-02-19T03:30:22;101891.88;;;6.58;86.60
42125;BME280;27787;44.594;11.046;2023-02-19T03:33:16;101894.81;;;6.45;87.09
42125;BME280;27787;44.594;11.046;2023-02-19T03:36:05;101894.88;;;6.46;87.53
42125;BME280;27787;44.594;11.046;2023-02-19T03:38:57;101892.88;;;6.62;88.20
42125;BME280;27787;44.594;11.046;2023-02-19T03:41:55;101889.03;;;6.74;88.05
42125;BME280;27787;44.594;11.046;2023-02-19T03:48:19;101896.91;;;6.95;87.55
42125;BME280;27787;44.594;11.046;2023-02-19T03:54:23;101891.69;;;7.18;86.32
42125;BME280;27787;44.594;11.046;2023-02-19T03:57:22;101888.31;;;7.22;85.63
42125;BME280;27787;44.594;11.046;2023-02-19T04:00:12;101897.03;;;7.21;85.37
42125;BME280;27787;44.594;11.046;2023-02-19T04:06:00;101889.00;;;7.16;84.71
42125;BME280;27787;44.594;11.046;2023-02-19T04:08:48;101898.50;;;7.14;84.73
42125;BME280;27787;44.594;11.046;2023-02-19T04:11:35;101894.03;;;7.12;85.15
42125;BME280;27787;44.594;11.046;2023-02-19T04:14:31;101894.81;;;7.09;85.56
42125;BME280;27787;44.594;11.046;2023-02-19T04:17:28;101882.53;;;7.08;85.46
42125;BME280;27787;44.594;11.046;2023-02-19T04:20:16;101887.00;;;7.10;85.14
42125;BME280;27787;44.594;11.046;2023-02-19T04:23:00;101885.06;;;7.05;85.08
42125;BME280;27787;44.594;11.046;2023-02-19T04:25:47;101881.53;;;7.04;85.36
42125;BME280;27787;44.594;11.046;2023-02-19T04:28:33;101887.63;;;7.03;85.58
42125;BME280;27787;44.594;11.046;2023-02-19T04:31:17;101883.25;;;7.04;85.34
42125;BME280;27787;44.594;11.046;2023-02-19T04:34:02;101879.78;;;7.05;85.78
42125;BME280;27787;44.594;11.046;2023-02-19T04:36:48;101876.28;;;7.04;85.09
42125;BME280;27787;44.594;11.046;2023-02-19T04:39:33;101879.75;;;7.03;85.58
42125;BME280;27787;44.594;11.046;2023-02-19T04:42:17;101875.56;;;7.08;85.84
42125;BME280;27787;44.594;11.046;2023-02-19T04:45:01;101882.75;;;7.14;85.79
42125;BME280;27787;44.594;11.046;2023-02-19T04:47:45;101881.75;;;7.10;85.64
42125;BME280;27787;44.594;11.046;2023-02-19T04:50:29;101878.97;;;7.06;85.06
42125;BME280;27787;44.594;11.046;2023-02-19T04:53:13;101882.16;;;6.99;85.04
42125;BME280;27787;44.594;11.046;2023-02-19T04:56:13;101885.50;;;6.95;85.33
42125;BME280;27787;44.594;11.046;2023-02-19T04:58:58;101884.97;;;6.81;84.49
42125;BME280;27787;44.594;11.046;2023-02-19T05:01:43;101887.59;;;6.81;84.52
42125;BME280;27787;44.594;11.046;2023-02-19T05:04:27;101886.63;;;6.79;84.78
42125;BME280;27787;44.594;11.046;2023-02-19T05:07:11;101882.84;;;6.72;84.66
42125;BME280;27787;44.594;11.046;2023-02-19T05:09:55;101889.75;;;6.70;85.09
42125;BME280;27787;44.594;11.046;2023-02-19T05:12:39;101892.38;;;6.70;85.41
42125;BME280;27787;44.594;11.046;2023-02-19T05:15:23;101888.97;;;6.73;85.46
42125;BME280;27787;44.594;11.046;2023-02-19T05:18:07;101880.50;;;6.78;85.83
42125;BME280;27787;44.594;11.046;2023-02-19T05:20:51;101875.09;;;6.75;85.53
42125;BME280;27787;44.594;11.046;2023-02-19T05:23:36;101874.13;;;6.73;85.41
42125;BME280;27787;44.594;11.046;2023-02-19T05:26:22;101875.81;;;6.71;84.62
42125;BME280;27787;44.594;11.046;2023-02-19T05:29:06;101881.06;;;6.71;85.04
42125;BME280;27787;44.594;11.046;2023-02-19T05:31:50;101877.47;;;6.69;85.45
42125;BME280;27787;44.594;11.046;2023-02-19T05:34:34;101873.41;;;6.55;83.14
42125;BME280;27787;44.594;11.046;2023-02-19T05:37:19;101873.50;;;6.37;84.55
42125;BME280;27787;44.594;11.046;2023-02-19T05:40:04;101875.38;;;6.40;85.49
42125;BME280;27787;44.594;11.046;2023-02-19T05:42:48;101874.72;;;6.45;85.33
42125;BME280;27787;44.594;11.046;2023-02-19T05:45:33;101871.72;;;6.36;84.33
42125;BME280;27787;44.594;11.046;2023-02-19T05:48:17;101873.91;;;6.26;84.60
42125;BME280;27787;44.594;11.046;2023-02-19T05:51:03;101877.72;;;6.13;85.17
42125;BME280;27787;44.594;11.046;2023-02-19T05:53:47;101868.84;;;5.90;85.40
42125;BME280;27787;44.594;11.046;2023-02-19T05:56:34;101876.53;;;5.68;86.17
42125;BME280;27787;44.594;11.046;2023-02-19T05:59:21;101870.56;;;5.51;87.18
42125;BME280;27787;44.594;11.046;2023-02-19T06:02:08;101873.63;;;5.42;88.07
42125;BME280;27787;44.594;11.046;2023-02-19T06:04:53;101871.91;;;5.43;89.28
42125;BME280;27787;44.594;11.046;2023-02-19T06:07:37;101868.38;;;5.60;89.90
42125;BME280;27787;44.594;11.046;2023-02-19T06:10:22;101865.72;;;5.79;89.81
42125;BME280;27787;44.594;11.046;2023-02-19T06:13:07;101865.53;;;5.94;88.51
42125;BME280;27787;44.594;11.046;2023-02-19T06:15:51;101862.00;;;5.94;87.36
42125;BME280;27787;44.594;11.046;2023-02-19T06:18:35;101861.66;;;6.05;87.27
42125;BME280;27787;44.594;11.046;2023-02-19T06:21:23;101856.09;;;6.18;87.94
42125;BME280;27787;44.594;11.046;2023-02-19T06:24:08;101861.81;;;6.29;87.86
42125;BME280;27787;44.594;11.046;2023-02-19T06:26:52;101861.44;;;6.41;87.88
42125;BME280;27787;44.594;11.046;2023-02-19T06:29:36;101864.25;;;6.45;87.56
42125;BME280;27787;44.594;11.046;2023-02-19T06:32:21;101868.34;;;6.39;86.30
42125;BME280;27787;44.594;11.046;2023-02-19T06:35:06;101870.56;;;6.30;86.35
42125;BME280;27787;44.594;11.046;2023-02-19T06:37:52;101871.34;;;6.27;86.65
42125;BME280;27787;44.594;11.046;2023-02-19T06:40:37;101867.25;;;6.34;86.91
42125;BME280;27787;44.594;11.046;2023-02-19T06:43:21;101866.69;;;6.41;87.15
42125;BME280;27787;44.594;11.046;2023-02-19T06:46:07;101859.66;;;6.40;86.38
42125;BME280;27787;44.594;11.046;2023-02-19T06:48:51;101857.41;;;6.28;86.32
42125;BME280;27787;44.594;11.046;2023-02-19T06:51:35;101861.28;;;6.17;86.71
42125;BME280;27787;44.594;11.046;2023-02-19T06:54:19;101856.66;;;6.11;86.44
42125;BME280;27787;44.594;11.046;2023-02-19T06:57:04;101869.28;;;5.99;87.18
42125;BME280;27787;44.594;11.046;2023-02-19T06:59:48;101869.53;;;6.05;87.83
42125;BME280;27787;44.594;11.046;2023-02-19T07:02:32;101853.25;;;6.12;88.08
42125;BME280;27787;44.594;11.046;2023-02-19T07:05:16;101857.84;;;6.18;87.69
42125;BME280;27787;44.594;11.046;2023-02-19T07:08:00;101857.72;;;6.15;87.13
42125;BME280;27787;44.594;11.046;2023-02-19T07:10:52;101854.44;;;6.20;87.90
42125;BME280;27787;44.594;11.046;2023-02-19T07:13:37;101867.19;;;6.32;87.90
42125;BME280;27787;44.594;11.046;2023-02-19T07:16:22;101864.41;;;6.50;87.99
42125;BME280;27787;44.594;11.046;2023-02-19T07:19:06;101848.44;;;6.65;87.73
42125;BME280;27787;44.594;11.046;2023-02-19T07:21:51;101859.34;;;6.75;87.25
42125;BME280;27787;44.594;11.046;2023-02-19T07:24:35;101860.69;;;6.87;86.94
42125;BME280;27787;44.594;11.046;2023-02-19T07:27:20;101857.59;;;6.97;86.25
42125;BME280;27787;44.594;11.046;2023-02-19T07:30:04;101851.88;;;7.07;86.23
42125;BME280;27787;44.594;11.046;2023-02-19T07:32:48;101852.25;;;7.16;85.89
42125;BME280;27787;44.594;11.046;2023-02-19T07:35:32;101851.69;;;7.25;85.81
42125;BME280;27787;44.594;11.046;2023-02-19T07:38:17;101857.22;;;7.32;85.60
42125;BME280;27787;44.594;11.046;2023-02-19T07:41:03;101853.13;;;7.40;85.79
42125;BME280;27787;44.594;11.046;2023-02-19T07:43:47;101851.72;;;7.49;86.02
42125;BME280;27787;44.594;11.046;2023-02-19T07:46:31;101852.75;;;7.54;86.31
42125;BME280;27787;44.594;11.046;2023-02-19T07:49:15;101850.38;;;7.60;86.73
42125;BME280;27787;44.594;11.046;2023-02-19T07:52:00;101854.16;;;7.68;87.07
42125;BME280;27787;44.594;11.046;2023-02-19T07:54:43;101850.09;;;7.76;86.99
42125;BME280;27787;44.594;11.046;2023-02-19T07:57:28;101854.78;;;7.85;87.22
42125;BME280;27787;44.594;11.046;2023-02-19T08:00:14;101854.22;;;7.93;87.12
42125;BME280;27787;44.594;11.046;2023-02-19T08:02:58;101858.00;;;8.02;87.42
42125;BME280;27787;44.594;11.046;2023-02-19T08:05:43;101855.72;;;8.11;87.39
42125;BME280;27787;44.594;11.046;2023-02-19T08:08:28;101857.69;;;8.18;87.92
42125;BME280;27787;44.594;11.046;2023-02-19T08:11:12;101858.03;;;8.27;88.22
42125;BME280;27787;44.594;11.046;2023-02-19T08:14:15;101867.16;;;8.37;88.77
42125;BME280;27787;44.594;11.046;2023-02-19T08:16:59;101866.69;;;8.48;89.11
42125;BME280;27787;44.594;11.046;2023-02-19T08:19:43;101859.94;;;8.56;89.33
42125;BME280;27787;44.594;11.046;2023-02-19T08:22:27;101861.94;;;8.64;89.96
42125;BME280;27787;44.594;11.046;2023-02-19T08:25:11;101857.91;;;8.75;90.69
42125;BME280;27787;44.594;11.046;2023-02-19T08:27:55;101858.25;;;8.85;91.15
42125;BME280;27787;44.594;11.046;2023-02-19T08:30:41;101854.19;;;8.97;91.46
42125;BME280;27787;44.594;11.046;2023-02-19T08:33:28;101855.44;;;9.08;91.39
42125;BME280;27787;44.594;11.046;2023-02-19T08:36:13;101849.56;;;9.16;91.15
42125;BME280;27787;44.594;11.046;2023-02-19T08:38:57;101853.38;;;9.26;90.97
42125;BME280;27787;44.594;11.046;2023-02-19T08:41:41;101847.59;;;9.38;91.44
42125;BME280;27787;44.594;11.046;2023-02-19T08:44:26;101844.34;;;9.48;91.37
42125;BME280;27787;44.594;11.046;2023-02-19T08:47:10;101852.63;;;9.60;91.12
42125;BME280;27787;44.594;11.046;2023-02-19T08:49:54;101848.44;;;9.67;91.16
42125;BME280;27787;44.594;11.046;2023-02-19T08:52:38;101846.88;;;9.75;91.26
42125;BME280;27787;44.594;11.046;2023-02-19T08:55:22;101847.03;;;9.80;91.67
42125;BME280;27787;44.594;11.046;2023-02-19T08:58:05;101848.22;;;9.91;91.97
42125;BME280;27787;44.594;11.046;2023-02-19T09:00:49;101841.47;;;10.02;92.01
42125;BME280;27787;44.594;11.046;2023-02-19T09:03:33;101836.53;;;10.14;92.10
42125;BME280;27787;44.594;11.046;2023-02-19T09:06:18;101836.09;;;10.29;91.47
42125;BME280;27787;44.594;11.046;2023-02-19T09:09:02;101838.97;;;10.40;91.09
42125;BME280;27787;44.594;11.046;2023-02-19T09:11:47;101834.84;;;10.51;90.38
42125;BME280;27787;44.594;11.046;2023-02-19T09:14:31;101837.75;;;10.60;90.10
42125;BME280;27787;44.594;11.046;2023-02-19T09:17:16;101837.16;;;10.72;89.84
42125;BME280;27787;44.594;11.046;2023-02-19T09:20:00;101832.03;;;10.79;89.19
42125;BME280;27787;44.594;11.046;2023-02-19T09:22:45;101829.59;;;10.88;89.39
42125;BME280;27787;44.594;11.046;2023-02-19T09:25:29;101835.13;;;10.98;89.03
42125;BME280;27787;44.594;11.046;2023-02-19T09:28:13;101835.25;;;11.04;88.37
42125;BME280;27787;44.594;11.046;2023-02-19T09:31:05;101835.34;;;11.07;88.38
42125;BME280;27787;44.594;11.046;2023-02-19T09:33:50;101850.50;;;11.17;88.11
42125;BME280;27787;44.594;11.046;2023-02-19T09:36:34;101848.78;;;11.19;88.10
42125;BME280;27787;44.594;11.046;2023-02-19T09:39:19;101833.97;;;11.26;88.09
42125;BME280;27787;44.594;11.046;2023-02-19T09:44:57;101836.06;;;11.42;87.37
42125;BME280;27787;44.594;11.046;2023-02-19T09:47:42;101836.31;;;11.52;87.32
42125;BME280;27787;44.594;11.046;2023-02-19T09:50:33;101840.00;;;11.61;86.50
42125;BME280;27787;44.594;11.046;2023-02-19T09:53:25;101830.47;;;11.69;85.24
42125;BME280;27787;44.594;11.046;2023-02-19T09:56:10;101826.25;;;11.78;84.68
42125;BME280;27787;44.594;11.046;2023-02-19T09:58:57;101817.66;;;11.87;83.18
42125;BME280;27787;44.594;11.046;2023-02-19T10:01:42;101823.94;;;11.95;80.66
42125;BME280;27787;44.594;11.046;2023-02-19T10:04:27;101826.78;;;12.04;80.40
42125;BME280;27787;44.594;11.046;2023-02-19T10:07:14;101815.56;;;12.19;80.06
42125;BME280;27787;44.594;11.046;2023-02-19T10:12:56;101791.00;;;12.26;79.49
42125;BME280;27787;44.594;11.046;2023-02-19T10:18:37;101794.75;;;12.39;78.85
42125;BME280;27787;44.594;11.046;2023-02-19T10:21:24;101795.69;;;12.43;78.49
42125;BME280;27787;44.594;11.046;2023-02-19T10:24:15;101797.47;;;12.45;77.95
42125;BME280;27787;44.594;11.046;2023-02-19T10:27:09;101803.78;;;12.52;77.12
42125;BME280;27787;44.594;11.046;2023-02-19T10:29:53;101797.59;;;12.51;77.19
42125;BME280;27787;44.594;11.046;2023-02-19T10:32:57;101788.72;;;12.49;77.34
42125;BME280;27787;44.594;11.046;2023-02-19T10:35:59;101788.81;;;12.54;77.10
42125;BME280;27787;44.594;11.046;2023-02-19T10:38:46;101782.69;;;12.58;76.98
42125;BME280;27787;44.594;11.046;2023-02-19T10:41:30;101775.66;;;12.61;76.98
42125;BME280;27787;44.594;11.046;2023-02-19T10:44:20;101779.28;;;12.66;76.97
42125;BME280;27787;44.594;11.046;2023-02-19T10:47:05;101767.13;;;12.79;75.87
42125;BME280;27787;44.594;11.046;2023-02-19T10:49:51;101777.75;;;12.82;75.46
42125;BME280;27787;44.594;11.046;2023-02-19T10:52:36;101778.59;;;12.80;75.49
42125;BME280;27787;44.594;11.046;2023-02-19T10:55:32;101774.16;;;12.79;75.12
42125;BME280;27787;44.594;11.046;2023-02-19T10:58:21;101775.94;;;12.78;75.26
42125;BME280;27787;44.594;11.046;2023-02-19T11:04:16;101764.63;;;12.90;75.38
42125;BME280;27787;44.594;11.046;2023-02-19T11:07:14;101761.16;;;12.95;74.37
42125;BME280;27787;44.594;11.046;2023-02-19T11:10:02;101754.94;;;12.93;73.76
42125;BME280;27787;44.594;11.046;2023-02-19T11:12:48;101747.84;;;12.91;74.02
42125;BME280;27787;44.594;11.046;2023-02-19T11:15:36;101740.78;;;12.91;73.90
42125;BME280;27787;44.594;11.046;2023-02-19T11:18:25;101727.59;;;12.96;73.91
42125;BME280;27787;44.594;11.046;2023-02-19T11:21:27;101733.91;;;13.06;74.01
42125;BME280;27787;44.594;11.046;2023-02-19T11:24:48;101727.06;;;13.23;72.47
42125;BME280;27787;44.594;11.046;2023-02-19T11:27:34;101724.41;;;13.23;73.07
42125;BME280;27787;44.594;11.046;2023-02-19T11:36:19;101713.81;;;13.24;74.71
42125;BME280;27787;44.594;11.046;2023-02-19T11:47:50;101686.56;;;13.36;73.24
42125;BME280;27787;44.594;11.046;2023-02-19T11:53:31;101691.09;;;13.46;72.41
42125;BME280;27787;44.594;11.046;2023-02-19T11:56:22;101686.66;;;13.45;74.24
42125;BME280;27787;44.594;11.046;2023-02-19T11:59:33;101682.31;;;13.52;74.38
42125;BME280;27787;44.594;11.046;2023-02-19T12:02:31;101689.44;;;13.56;74.63
42125;BME280;27787;44.594;11.046;2023-02-19T12:21:23;101674.47;;;13.64;73.22
42125;BME280;27787;44.594;11.046;2023-02-19T12:27:32;101664.81;;;13.72;73.75
42125;BME280;27787;44.594;11.046;2023-02-19T12:36:22;101651.47;;;13.65;75.60
42125;BME280;27787;44.594;11.046;2023-02-19T12:45:34;101645.31;;;13.67;75.65
42125;BME280;27787;44.594;11.046;2023-02-19T12:48:35;101644.47;;;13.70;76.32
42125;BME280;27787;44.594;11.046;2023-02-19T12:54:37;101649.78;;;13.74;76.58
42125;BME280;27787;44.594;11.046;2023-02-19T12:57:26;101656.00;;;13.75;75.99
42125;BME280;27787;44.594;11.046;2023-02-19T13:03:31;101648.03;;;13.75;75.78
42125;BME280;27787;44.594;11.046;2023-02-19T13:06:40;101643.69;;;13.81;75.96
42125;BME280;27787;44.594;11.046;2023-02-19T13:09:31;101638.31;;;13.75;76.39
42125;BME280;27787;44.594;11.046;2023-02-19T13:12:20;101642.69;;;13.72;76.58
42125;BME280;27787;44.594;11.046;2023-02-19T13:15:13;101635.63;;;13.71;77.17
42125;BME280;27787;44.594;11.046;2023-02-19T13:17:59;101640.06;;;13.75;76.93
42125;BME280;27787;44.594;11.046;2023-02-19T13:20:46;101629.53;;;13.82;76.17
42125;BME280;27787;44.594;11.046;2023-02-19T13:23:35;101626.88;;;13.84;76.03
42125;BME280;27787;44.594;11.046;2023-02-19T13:26:44;101620.72;;;13.90;75.21
42125;BME280;27787;44.594;11.046;2023-02-19T13:38:51;101603.88;;;13.83;76.02
42125;BME280;27787;44.594;11.046;2023-02-19T13:41:41;101598.59;;;13.86;75.72
42125;BME280;27787;44.594;11.046;2023-02-19T13:44:39;101600.38;;;13.90;75.82
42125;BME280;27787;44.594;11.046;2023-02-19T13:47:47;101602.16;;;13.93;75.44
42125;BME280;27787;44.594;11.046;2023-02-19T13:50:32;101603.06;;;13.95;75.04
42125;BME280;27787;44.594;11.046;2023-02-19T13:56:35;101595.06;;;13.93;74.20
42125;BME280;27787;44.594;11.046;2023-02-19T13:59:43;101592.41;;;13.88;74.76
42125;BME280;27787;44.594;11.046;2023-02-19T14:02:31;101597.72;;;13.92;75.68
42125;BME280;27787;44.594;11.046;2023-02-19T14:08:57;101594.25;;;13.96;75.53
42125;BME280;27787;44.594;11.046;2023-02-19T14:17:28;101582.75;;;13.97;76.21
42125;BME280;27787;44.594;11.046;2023-02-19T14:20:42;101571.25;;;14.02;76.06
42125;BME280;27787;44.594;11.046;2023-02-19T14:23:28;101575.69;;;14.05;75.98
42125;BME280;27787;44.594;11.046;2023-02-19T14:26:14;101580.13;;;14.06;75.67
42125;BME280;27787;44.594;11.046;2023-02-19T14:29:00;101581.06;;;14.11;75.26
42125;BME280;27787;44.594;11.046;2023-02-19T14:31:45;101577.53;;;14.13;74.86
42125;BME280;27787;44.594;11.046;2023-02-19T14:34:29;101577.50;;;14.09;75.32
42125;BME280;27787;44.594;11.046;2023-02-19T14:37:17;101577.50;;;14.07;75.42
42125;BME280;27787;44.594;11.046;2023-02-19T14:40:03;101572.19;;;14.10;75.52
42125;BME280;27787;44.594;11.046;2023-02-19T14:42:50;101564.25;;;14.15;75.00
42125;BME280;27787;44.594;11.046;2023-02-19T14:52:44;101560.81;;;14.34;74.41
42125;BME280;27787;44.594;11.046;2023-02-19T14:55:37;101559.06;;;14.42;73.98
42125;BME280;27787;44.594;11.046;2023-02-19T14:58:32;101560.03;;;14.51;74.00
42125;BME280;27787;44.594;11.046;2023-02-19T15:01:27;101554.72;;;14.55;73.48
42125;BME280;27787;44.594;11.046;2023-02-19T15:04:22;101552.13;;;14.60;72.79
42125;BME280;27787;44.594;11.046;2023-02-19T15:07:07;101549.41;;;14.58;72.59
42125;BME280;27787;44.594;11.046;2023-02-19T15:09:56;101539.69;;;14.56;72.91
42125;BME280;27787;44.594;11.046;2023-02-19T15:12:45;101537.94;;;14.61;73.14
42125;BME280;27787;44.594;11.046;2023-02-19T15:15:33;101545.91;;;14.64;72.65
42125;BME280;27787;44.594;11.046;2023-02-19T15:18:22;101545.03;;;14.68;72.24
42125;BME280;27787;44.594;11.046;2023-02-19T15:21:25;101541.50;;;14.70;72.44
42125;BME280;27787;44.594;11.046;2023-02-19T15:24:13;101544.19;;;14.78;72.24
42125;BME280;27787;44.594;11.046;2023-02-19T15:26:58;101546.84;;;14.84;71.44
42125;BME280;27787;44.594;11.046;2023-02-19T15:29:48;101549.53;;;14.87;71.29
42125;BME280;27787;44.594;11.046;2023-02-19T15:32:32;101556.63;;;14.88;71.12
42125;BME280;27787;44.594;11.046;2023-02-19T15:35:17;101559.28;;;14.91;71.22
42125;BME280;27787;44.594;11.046;2023-02-19T15:38:02;101552.19;;;14.90;71.01
42125;BME280;27787;44.594;11.046;2023-02-19T15:40:47;101555.72;;;14.89;70.92
42125;BME280;27787;44.594;11.046;2023-02-19T15:46:39;101553.97;;;14.88;70.79
42125;BME280;27787;44.594;11.046;2023-02-19T15:49:33;101552.19;;;14.87;71.05
42125;BME280;27787;44.594;11.046;2023-02-19T16:03:49;101557.50;;;14.95;70.30
42125;BME280;27787;44.594;11.046;2023-02-19T16:06:58;101558.41;;;14.94;70.55
42125;BME280;27787;44.594;11.046;2023-02-19T16:09:43;101561.06;;;14.92;70.32
42125;BME280;27787;44.594;11.046;2023-02-19T16:12:27;101557.50;;;14.90;70.54
42125;BME280;27787;44.594;11.046;2023-02-19T16:15:17;101556.63;;;14.85;70.57
42125;BME280;27787;44.594;11.046;2023-02-19T16:18:02;101563.69;;;14.80;70.98
42125;BME280;27787;44.594;11.046;2023-02-19T16:20:47;101565.44;;;14.75;70.92
42125;BME280;27787;44.594;11.046;2023-02-19T16:23:32;101568.06;;;14.67;71.21
42125;BME280;27787;44.594;11.046;2023-02-19T16:26:16;101565.41;;;14.60;71.53
42125;BME280;27787;44.594;11.046;2023-02-19T16:29:00;101566.25;;;14.53;71.96
42125;BME280;27787;44.594;11.046;2023-02-19T16:31:50;101562.63;;;14.43;72.28
42125;BME280;27787;44.594;11.046;2023-02-19T16:37:55;101571.41;;;14.25;73.23
42125;BME280;27787;44.594;11.046;2023-02-19T16:43:29;101576.56;;;14.04;74.06
42125;BME280;27787;44.594;11.046;2023-02-19T16:46:14;101593.28;;;13.91;74.97
42125;BME280;27787;44.594;11.046;2023-02-19T16:48:58;101597.69;;;13.85;75.33